Time;durP1;ratioP1;P1;durP2;ratioP2;P2;SDS_P1;SDS_P2;PMS_P1;PMS_P2;Temp;Humidity;BMP_temperature;BMP_pressure;BME280_temperature;BME280_humidity;BME280_pressure;Samples;Min_cycle;Max_cycle;Signal;HPM_P1;HPM_P2
2023/04/01 04:56:11;;;;;;;36.65;15.00;;;;;;;;;;895964;23;20825;-93
2023/04/01 04:58:40;;;;;;;32.35;13.95;;;;;;;;;;4882227;29;20045;-94
2023/04/01 05:01:07;;;;;;;37.40;13.63;;;;;;;;;;4877134;29;20041;-94
2023/04/01 05:03:33;;;;;;;30.63;13.73;;;;;;;;;;4875100;29;20514;-95
2023/04/01 05:05:59;;;;;;;41.38;15.15;;;;;;;;;;4865217;29;20409;-93
2023/04/01 05:08:25;;;;;;;33.10;14.43;;;;;;;;;;4895308;29;20031;-94
2023/04/01 05:10:52;;;;;;;34.13;14.38;;;;;;;;;;4864049;29;20068;-93
2023/04/01 05:13:18;;;;;;;34.70;13.88;;;;;;;;;;4866367;29;20041;-93
2023/04/01 05:15:44;;;;;;;36.28;14.88;;;;;;;;;;4867971;29;20500;-94
2023/04/01 05:18:11;;;;;;;33.53;14.55;;;;;;;;;;4893076;29;20025;-93
2023/04/01 05:20:37;;;;;;;44.25;15.48;;;;;;;;;;4863647;29;20032;-93
2023/04/01 05:23:05;;;;;;;37.75;15.75;;;;;;;;;;4864225;29;20201;-93
2023/04/01 05:25:31;;;;;;;39.40;15.90;;;;;;;;;;4873180;29;20041;-94
2023/04/01 05:27:57;;;;;;;35.92;15.10;;;;;;;;;;4863442;29;20055;-93
2023/04/01 05:30:23;;;;;;;33.60;13.77;;;;;;;;;;4867569;29;20052;-93
2023/04/01 05:32:49;;;;;;;39.85;15.00;;;;;;;;;;4870383;29;20068;-94
2023/04/01 05:35:15;;;;;;;34.35;14.75;;;;;;;;;;4864106;29;20038;-92
2023/04/01 05:37:41;;;;;;;32.17;13.57;;;;;;;;;;4882641;29;20485;-93
2023/04/01 05:40:11;;;;;;;26.75;12.75;;;;;;;;;;4888103;29;20505;-93
2023/04/01 05:42:37;;;;;;;37.85;13.85;;;;;;;;;;4882281;29;20060;-92
2023/04/01 05:45:03;;;;;;;35.47;15.88;;;;;;;;;;4889606;29;20540;-94
2023/04/01 05:47:29;;;;;;;34.10;14.00;;;;;;;;;;4885821;29;20126;-93
2023/04/01 05:49:55;;;;;;;34.25;13.88;;;;;;;;;;4870905;29;20568;-94
2023/04/01 05:52:22;;;;;;;37.03;14.80;;;;;;;;;;4881743;29;20032;-93
2023/04/01 05:54:51;;;;;;;36.80;13.50;;;;;;;;;;4882961;29;20055;-94
2023/04/01 05:57:17;;;;;;;37.58;14.38;;;;;;;;;;4872615;29;20056;-94
2023/04/01 05:59:44;;;;;;;31.95;14.32;;;;;;;;;;4863078;29;20453;-93
2023/04/01 06:02:11;;;;;;;29.48;13.65;;;;;;;;;;4877236;29;20056;-93
2023/04/01 06:04:38;;;;;;;34.25;13.88;;;;;;;;;;4899763;29;20441;-94
2023/04/01 06:07:16;;;;;;;33.78;12.30;;;;;;;;;;4909530;29;20033;-94
2023/04/01 06:09:45;;;;;;;33.70;13.88;;;;;;;;;;4904621;29;20029;-93
2023/04/01 06:12:50;;;;;;;31.88;13.98;;;;;;;;;;4896847;29;20053;-93
2023/04/01 06:15:29;;;;;;;35.25;14.63;;;;;;;;;;4880380;29;20464;-94
2023/04/01 06:18:10;;;;;;;37.47;14.23;;;;;;;;;;4901645;29;20489;-94
2023/04/01 06:20:49;;;;;;;35.20;12.48;;;;;;;;;;4902022;29;20077;-94
2023/04/01 06:23:21;;;;;;;30.98;13.50;;;;;;;;;;4896059;29;20125;-92
2023/04/01 06:26:10;;;;;;;30.20;14.13;;;;;;;;;;4900654;29;20055;-93
2023/04/01 06:28:49;;;;;;;36.35;14.05;;;;;;;;;;4866619;29;20489;-93
2023/04/01 06:31:23;;;;;;;33.45;14.63;;;;;;;;;;4887966;29;20040;-94
2023/04/01 06:34:08;;;;;;;35.13;14.98;;;;;;;;;;4900244;29;20056;-94
2023/04/01 06:36:47;;;;;;;39.75;16.17;;;;;;;;;;4901038;29;20813;-93
2023/04/01 06:39:16;;;;;;;35.20;14.93;;;;;;;;;;4896596;29;20021;-94
2023/04/01 06:41:45;;;;;;;45.00;16.73;;;;;;;;;;4898583;29;20123;-93
2023/04/01 06:44:16;;;;;;;38.15;15.90;;;;;;;;;;4895244;29;20033;-92
2023/04/01 06:46:47;;;;;;;47.42;16.08;;;;;;;;;;4893607;29;20046;-94
2023/04/01 06:49:33;;;;;;;37.30;16.65;;;;;;;;;;4888234;29;20028;-95
2023/04/01 06:52:24;;;;;;;37.88;16.55;;;;;;;;;;4903562;29;20061;-94
2023/04/01 06:55:11;;;;;;;37.90;16.77;;;;;;;;;;4900239;29;20108;-94
2023/04/01 06:57:45;;;;;;;39.30;17.58;;;;;;;;;;4905594;29;20113;-93
2023/04/01 07:00:14;;;;;;;41.20;18.00;;;;;;;;;;4905591;29;20052;-95
2023/04/01 07:02:49;;;;;;;44.65;17.75;;;;;;;;;;4901483;29;20540;-94
2023/04/01 07:05:19;;;;;;;49.13;18.75;;;;;;;;;;4887615;29;20109;-94
2023/04/01 07:07:48;;;;;;;44.15;18.15;;;;;;;;;;4899347;29;20481;-93
2023/04/01 07:10:18;;;;;;;43.05;17.10;;;;;;;;;;4895521;29;20036;-94
2023/04/01 07:13:05;;;;;;;42.42;17.63;;;;;;;;;;4900045;29;20031;-94
2023/04/01 07:15:37;;;;;;;36.88;17.08;;;;;;;;;;4892180;29;20049;-94
2023/04/01 07:18:06;;;;;;;37.72;17.00;;;;;;;;;;4898029;29;20024;-94
2023/04/01 07:20:33;;;;;;;38.50;16.30;;;;;;;;;;4904557;29;20039;-94
2023/04/01 07:23:01;;;;;;;38.20;18.13;;;;;;;;;;4905657;29;20025;-94
2023/04/01 07:25:34;;;;;;;39.13;16.67;;;;;;;;;;4892761;29;20036;-94
2023/04/01 07:28:05;;;;;;;39.35;16.95;;;;;;;;;;4887436;29;20139;-93
2023/04/01 07:30:43;;;;;;;38.80;18.23;;;;;;;;;;4882908;29;20060;-94
2023/04/01 07:33:18;;;;;;;31.88;14.25;;;;;;;;;;4899022;29;20044;-93
2023/04/01 07:35:44;;;;;;;30.02;14.45;;;;;;;;;;4867462;29;20408;-94
2023/04/01 07:38:20;;;;;;;26.98;13.15;;;;;;;;;;4893273;29;20036;-95
2023/04/01 07:41:01;;;;;;;30.63;14.73;;;;;;;;;;4896762;29;20036;-95
2023/04/01 07:43:27;;;;;;;29.02;14.30;;;;;;;;;;4895027;29;20029;-95
2023/04/01 07:46:12;;;;;;;30.92;14.63;;;;;;;;;;4895680;29;20413;-94
2023/04/01 07:48:57;;;;;;;36.95;16.30;;;;;;;;;;4893810;29;20036;-94
2023/04/01 07:51:41;;;;;;;29.33;15.13;;;;;;;;;;4897582;29;20032;-95
2023/04/01 07:54:27;;;;;;;35.92;14.15;;;;;;;;;;4908912;29;20033;-94
2023/04/01 07:56:54;;;;;;;36.00;16.50;;;;;;;;;;4882200;29;20044;-95
2023/04/01 07:59:20;;;;;;;32.90;14.77;;;;;;;;;;4893938;29;20252;-95
2023/04/01 08:02:15;;;;;;;33.40;15.63;;;;;;;;;;4891797;29;20037;-93
2023/04/01 08:04:53;;;;;;;33.67;15.70;;;;;;;;;;4903122;29;20182;-93
2023/04/01 08:07:32;;;;;;;26.90;14.45;;;;;;;;;;4899103;29;20111;-94
2023/04/01 08:10:16;;;;;;;26.90;13.27;;;;;;;;;;4920727;29;20040;-94
2023/04/01 08:12:48;;;;;;;26.70;13.68;;;;;;;;;;4905384;29;20048;-94
2023/04/01 08:15:26;;;;;;;25.77;12.35;;;;;;;;;;4897217;29;20040;-94
2023/04/01 08:18:11;;;;;;;25.08;12.00;;;;;;;;;;4895744;29;20030;-94
2023/04/01 08:20:42;;;;;;;26.70;11.07;;;;;;;;;;4899778;29;20037;-93
2023/04/01 08:23:14;;;;;;;23.30;11.27;;;;;;;;;;4903572;29;20029;-93
2023/04/01 09:03:36;;;;;;;8.98;5.10;;;;;;;;;;783359;23;20337;-95
2023/04/01 09:06:25;;;;;;;11.90;5.47;;;;;;;;;;4853687;29;20509;-93
2023/04/01 09:09:02;;;;;;;9.63;5.18;;;;;;;;;;4902117;29;20511;-93
2023/04/01 09:11:46;;;;;;;8.23;5.05;;;;;;;;;;4897729;29;20044;-94
2023/04/01 09:14:22;;;;;;;7.18;4.25;;;;;;;;;;4896023;29;20029;-93
2023/04/01 09:17:07;;;;;;;6.13;3.60;;;;;;;;;;4887876;29;20415;-93
2023/04/01 09:19:59;;;;;;;4.72;3.03;;;;;;;;;;4881458;29;20056;-93
2023/04/01 09:22:51;;;;;;;5.78;3.28;;;;;;;;;;4890901;29;20024;-94
2023/04/01 09:25:20;;;;;;;5.85;3.50;;;;;;;;;;4879866;29;20064;-93
2023/04/01 09:28:06;;;;;;;6.18;3.17;;;;;;;;;;4900392;29;20040;-93
2023/04/01 09:30:54;;;;;;;4.45;2.55;;;;;;;;;;4897913;29;20118;-93
2023/04/01 09:33:39;;;;;;;8.68;3.47;;;;;;;;;;4883456;29;20024;-94
2023/04/01 09:36:19;;;;;;;4.57;2.42;;;;;;;;;;4885506;29;20099;-93
2023/04/01 09:39:01;;;;;;;4.20;2.65;;;;;;;;;;4887066;29;20032;-93
2023/04/01 09:41:43;;;;;;;4.32;2.72;;;;;;;;;;4888048;29;20040;-94
2023/04/01 09:44:15;;;;;;;4.20;2.85;;;;;;;;;;4895459;29;20016;-92
2023/04/01 09:47:01;;;;;;;5.60;2.70;;;;;;;;;;4898028;29;20036;-93
2023/04/01 09:49:31;;;;;;;5.80;3.58;;;;;;;;;;4883956;29;20067;-92
2023/04/01 09:52:00;;;;;;;4.93;2.63;;;;;;;;;;4891609;29;20499;-93
2023/04/01 09:54:45;;;;;;;5.10;3.38;;;;;;;;;;4888825;29;20043;-92
2023/04/01 09:57:27;;;;;;;24.73;7.78;;;;;;;;;;4886516;29;20028;-93
2023/04/01 10:00:06;;;;;;;7.40;3.53;;;;;;;;;;4887461;29;20036;-93
2023/04/01 10:02:35;;;;;;;4.75;3.17;;;;;;;;;;4882578;29;20114;-93
2023/04/01 10:05:14;;;;;;;6.35;3.42;;;;;;;;;;4901949;29;20131;-94
2023/04/01 10:07:43;;;;;;;5.45;2.90;;;;;;;;;;4906710;29;20048;-92
2023/04/01 10:10:19;;;;;;;8.40;3.08;;;;;;;;;;4905859;29;20024;-92
2023/04/01 10:13:03;;;;;;;5.97;2.90;;;;;;;;;;4908140;29;20024;-92
2023/04/01 10:15:48;;;;;;;3.95;2.50;;;;;;;;;;4895173;29;20044;-92
2023/04/01 10:18:50;;;;;;;5.32;2.30;;;;;;;;;;4893808;29;20024;-92
2023/04/01 10:21:45;;;;;;;5.30;2.72;;;;;;;;;;4825101;29;20046;-92
2023/04/01 10:24:14;;;;;;;4.68;2.97;;;;;;;;;;4843307;29;21024;-93
2023/04/01 10:26:40;;;;;;;8.55;3.38;;;;;;;;;;4898393;29;20222;-93
2023/04/01 10:29:16;;;;;;;6.10;2.30;;;;;;;;;;4898373;29;20060;-93
2023/04/01 10:31:51;;;;;;;5.72;3.38;;;;;;;;;;4895029;29;20044;-92
2023/04/01 10:34:36;;;;;;;4.32;2.50;;;;;;;;;;4901469;29;20051;-93
2023/04/01 10:37:09;;;;;;;4.10;2.42;;;;;;;;;;4897054;29;20039;-93
2023/04/01 10:39:55;;;;;;;3.03;1.83;;;;;;;;;;4919227;29;20028;-93
2023/04/01 10:42:35;;;;;;;5.18;1.92;;;;;;;;;;4907935;29;20054;-93
2023/04/01 10:45:11;;;;;;;2.65;1.63;;;;;;;;;;4894098;29;20040;-93
2023/04/01 10:48:10;;;;;;;2.28;1.80;;;;;;;;;;4919441;29;20036;-93
2023/04/01 10:50:46;;;;;;;3.55;1.48;;;;;;;;;;4904007;29;20042;-93
2023/04/01 10:53:16;;;;;;;3.75;2.15;;;;;;;;;;4893797;29;20059;-93
2023/04/01 10:56:00;;;;;;;3.15;2.00;;;;;;;;;;4902218;29;20089;-93
2023/04/01 10:58:26;;;;;;;4.35;2.03;;;;;;;;;;4895168;29;20029;-93
2023/04/01 11:01:04;;;;;;;4.53;2.53;;;;;;;;;;4900084;29;20374;-93
2023/04/01 11:03:47;;;;;;;6.18;2.47;;;;;;;;;;4904310;29;20095;-93
2023/04/01 11:06:49;;;;;;;4.25;2.50;;;;;;;;;;4898260;28;20361;-93
2023/04/01 11:09:45;;;;;;;3.63;2.60;;;;;;;;;;4888920;29;20055;-93
2023/04/01 11:12:44;;;;;;;2.90;2.20;;;;;;;;;;4879200;29;20037;-93
2023/04/01 11:15:27;;;;;;;4.07;2.92;;;;;;;;;;4872279;29;20049;-93
2023/04/01 11:18:12;;;;;;;3.97;2.22;;;;;;;;;;4895292;29;20075;-94
2023/04/01 11:20:38;;;;;;;2.97;2.15;;;;;;;;;;4892280;29;20110;-94
2023/04/01 11:23:04;;;;;;;6.50;2.65;;;;;;;;;;4895084;29;20044;-94
2023/04/01 11:25:40;;;;;;;3.78;2.22;;;;;;;;;;4900458;29;20528;-93
2023/04/01 11:28:06;;;;;;;3.33;2.60;;;;;;;;;;4879786;29;20036;-94
2023/04/01 11:30:42;;;;;;;3.05;1.90;;;;;;;;;;4881113;29;20033;-94
2023/04/01 11:33:32;;;;;;;2.20;1.88;;;;;;;;;;4898499;29;20643;-93
2023/04/01 11:36:06;;;;;;;1.95;1.55;;;;;;;;;;4899466;29;20079;-94
2023/04/01 11:38:33;;;;;;;2.60;1.50;;;;;;;;;;4898285;29;20837;-94
2023/04/01 11:40:59;;;;;;;4.43;1.75;;;;;;;;;;4900073;29;20043;-94
2023/04/01 11:43:35;;;;;;;2.88;1.88;;;;;;;;;;4883113;29;20024;-94
2023/04/01 11:46:10;;;;;;;2.55;1.90;;;;;;;;;;4888000;29;20401;-94
2023/04/01 11:48:55;;;;;;;1.98;1.50;;;;;;;;;;4902594;29;20040;-93
2023/04/01 11:51:39;;;;;;;6.63;1.88;;;;;;;;;;4884692;29;20654;-94
2023/04/01 11:54:29;;;;;;;3.35;2.05;;;;;;;;;;4883787;29;20036;-93
2023/04/01 11:56:55;;;;;;;1.60;1.40;;;;;;;;;;4879591;29;20021;-93
2023/04/01 11:59:42;;;;;;;3.75;1.63;;;;;;;;;;4904248;29;20029;-94
2023/04/01 12:02:08;;;;;;;;;;;;;;;;;;4900981;29;20036;-94
2023/04/01 12:04:37;;;;;;;2.35;1.52;;;;;;;;;;4891063;29;19940;-94
2023/04/01 12:07:04;;;;;;;4.00;1.90;;;;;;;;;;4900793;29;20064;-93
2023/04/01 12:09:36;;;;;;;4.70;1.60;;;;;;;;;;4899624;29;20060;-92
2023/04/01 12:12:12;;;;;;;5.75;2.35;;;;;;;;;;4894041;29;20442;-93
2023/04/01 12:14:43;;;;;;;2.40;1.60;;;;;;;;;;4880496;29;20033;-92
2023/04/01 12:17:09;;;;;;;3.17;1.70;;;;;;;;;;4881803;29;20045;-93
2023/04/01 12:19:41;;;;;;;2.95;2.08;;;;;;;;;;4886889;29;20052;-93
2023/04/01 12:22:31;;;;;;;7.53;1.70;;;;;;;;;;4884950;29;20032;-94
2023/04/01 12:25:10;;;;;;;2.35;1.65;;;;;;;;;;4891656;29;20041;-94
2023/04/01 12:27:36;;;;;;;2.08;1.70;;;;;;;;;;4899891;29;20436;-94
2023/04/01 12:30:15;;;;;;;7.40;1.30;;;;;;;;;;4878370;29;20705;-94
2023/04/01 12:32:45;;;;;;;2.00;1.65;;;;;;;;;;4900079;29;20101;-94
2023/04/01 12:35:37;;;;;;;2.03;1.50;;;;;;;;;;4885185;29;20096;-95
2023/04/01 12:38:14;;;;;;;2.35;1.65;;;;;;;;;;4876232;29;20033;-94
2023/04/01 12:40:40;;;;;;;2.55;1.90;;;;;;;;;;4895973;29;20120;-94
2023/04/01 12:43:22;;;;;;;3.75;1.65;;;;;;;;;;4904523;29;20055;-95
2023/04/01 12:45:51;;;;;;;3.42;1.50;;;;;;;;;;4873852;29;20556;-95
2023/04/01 12:48:33;;;;;;;1.88;1.67;;;;;;;;;;4901889;29;20102;-95
2023/04/01 12:51:02;;;;;;;4.28;2.42;;;;;;;;;;4916404;29;20040;-94
2023/04/01 12:53:43;;;;;;;1.98;1.67;;;;;;;;;;4901762;29;20037;-94
2023/04/01 12:56:28;;;;;;;4.53;1.77;;;;;;;;;;4897030;29;20037;-94
2023/04/01 12:59:02;;;;;;;2.50;2.30;;;;;;;;;;4902268;29;20048;-94
2023/04/01 13:01:40;;;;;;;2.20;1.58;;;;;;;;;;4897922;29;20029;-92
2023/04/01 13:04:15;;;;;;;3.13;2.33;;;;;;;;;;4899583;29;20475;-94
2023/04/01 13:06:53;;;;;;;1.95;1.70;;;;;;;;;;4894050;29;20283;-93
2023/04/01 13:09:42;;;;;;;3.97;1.92;;;;;;;;;;4884238;29;20505;-93
2023/04/01 13:12:24;;;;;;;4.05;1.80;;;;;;;;;;4884839;29;20088;-93
2023/04/01 13:15:15;;;;;;;4.85;1.90;;;;;;;;;;4890618;29;20056;-93
2023/04/01 13:18:00;;;;;;;2.22;1.80;;;;;;;;;;4903369;29;20040;-94
2023/04/01 13:20:45;;;;;;;4.38;1.73;;;;;;;;;;4885273;29;20029;-93
2023/04/01 13:23:21;;;;;;;4.35;2.95;;;;;;;;;;4905981;29;20056;-94
2023/04/01 13:26:06;;;;;;;4.20;2.83;;;;;;;;;;4880948;29;20060;-94
2023/04/01 13:28:36;;;;;;;1.98;1.55;;;;;;;;;;4897752;29;20036;-93
2023/04/01 13:31:08;;;;;;;2.20;1.77;;;;;;;;;;4895291;29;20017;-92
2023/04/01 13:33:40;;;;;;;1.73;1.45;;;;;;;;;;4897008;29;20082;-94
2023/04/01 13:36:25;;;;;;;3.13;1.80;;;;;;;;;;4883575;29;20066;-93
2023/04/01 13:39:06;;;;;;;3.20;1.30;;;;;;;;;;4899503;29;20081;-93
2023/04/01 13:41:42;;;;;;;1.88;1.35;;;;;;;;;;4883167;29;20052;-93
2023/04/01 13:44:17;;;;;;;1.95;1.60;;;;;;;;;;4893916;29;20044;-92
2023/04/01 13:47:01;;;;;;;1.42;1.33;;;;;;;;;;4903523;29;20088;-95
2023/04/01 13:49:33;;;;;;;2.80;1.45;;;;;;;;;;4903210;29;20233;-94
2023/04/01 13:52:06;;;;;;;1.60;1.40;;;;;;;;;;4902595;29;20026;-94
2023/04/01 13:54:32;;;;;;;2.63;1.42;;;;;;;;;;4892716;29;20048;-94
2023/04/01 13:57:26;;;;;;;2.95;1.48;;;;;;;;;;4902696;29;20483;-95
2023/04/01 13:59:58;;;;;;;1.60;1.30;;;;;;;;;;4914920;29;20028;-94
2023/04/01 14:02:43;;;;;;;2.53;1.65;;;;;;;;;;4904081;29;20032;-94
2023/04/01 14:05:18;;;;;;;1.80;1.33;;;;;;;;;;4894796;29;20028;-95
2023/04/01 14:08:09;;;;;;;2.20;1.23;;;;;;;;;;4902087;29;20064;-95
2023/04/01 14:10:48;;;;;;;3.00;1.85;;;;;;;;;;4905698;29;20040;-95
2023/04/01 14:13:35;;;;;;;2.72;1.17;;;;;;;;;;4892482;29;20058;-95
2023/04/01 14:16:20;;;;;;;2.70;1.50;;;;;;;;;;4901514;29;20490;-96
2023/04/01 14:19:05;;;;;;;1.95;1.58;;;;;;;;;;4901765;29;20025;-96
2023/04/01 14:21:31;;;;;;;1.40;1.30;;;;;;;;;;4888466;29;20039;-94
2023/04/01 14:24:10;;;;;;;1.67;1.38;;;;;;;;;;4901144;29;20029;-94
2023/04/01 14:26:56;;;;;;;2.13;1.13;;;;;;;;;;4898686;29;20125;-94
2023/04/01 14:29:41;;;;;;;1.30;1.15;;;;;;;;;;4882156;29;20031;-94
2023/04/01 14:32:31;;;;;;;2.55;1.10;;;;;;;;;;4884797;29;20094;-94
2023/04/01 14:35:13;;;;;;;1.55;1.23;;;;;;;;;;4893999;29;20064;-95
2023/04/01 14:37:58;;;;;;;1.35;1.15;;;;;;;;;;4897747;29;20127;-94
2023/04/01 14:40:43;;;;;;;1.42;1.10;;;;;;;;;;4890640;29;20052;-93
2023/04/01 14:43:27;;;;;;;1.20;1.10;;;;;;;;;;4912356;29;20025;-94
2023/04/01 14:46:00;;;;;;;3.22;1.45;;;;;;;;;;4894049;29;20762;-94
2023/04/01 14:48:33;;;;;;;1.63;1.40;;;;;;;;;;4890270;29;20540;-93
2023/04/01 14:51:25;;;;;;;3.67;1.88;;;;;;;;;;4906773;29;20512;-93
2023/04/01 14:54:00;;;;;;;2.50;1.58;;;;;;;;;;4872029;29;20044;-93
2023/04/01 14:56:43;;;;;;;3.53;2.00;;;;;;;;;;4898182;29;20037;-94
2023/04/01 14:59:29;;;;;;;2.97;1.67;;;;;;;;;;4890530;29;20039;-94
2023/04/01 15:01:59;;;;;;;3.63;1.77;;;;;;;;;;4890378;29;20029;-94
2023/04/01 15:04:44;;;;;;;1.85;1.67;;;;;;;;;;4893490;29;20033;-94
2023/04/01 15:07:36;;;;;;;3.38;1.85;;;;;;;;;;4893869;29;20506;-94
2023/04/01 15:10:23;;;;;;;3.33;2.22;;;;;;;;;;4906799;29;20040;-93
2023/04/01 15:13:08;;;;;;;6.82;2.33;;;;;;;;;;4878640;29;20056;-93
2023/04/01 15:15:41;;;;;;;5.25;2.70;;;;;;;;;;4896783;29;20052;-94
2023/04/01 15:18:12;;;;;;;4.25;2.67;;;;;;;;;;4887589;29;20028;-95
2023/04/01 15:20:46;;;;;;;6.03;3.00;;;;;;;;;;4904142;29;20497;-94
2023/04/01 15:23:31;;;;;;;5.32;3.05;;;;;;;;;;4902972;29;20077;-94
2023/04/01 15:26:28;;;;;;;4.28;2.58;;;;;;;;;;4897626;29;20040;-93
2023/04/01 15:29:22;;;;;;;15.45;2.45;;;;;;;;;;4907545;29;20044;-94
2023/04/01 15:31:48;;;;;;;6.95;2.60;;;;;;;;;;4888829;29;20051;-94
2023/04/01 15:34:34;;;;;;;4.20;2.40;;;;;;;;;;4899435;29;20037;-94
2023/04/01 15:37:22;;;;;;;7.65;2.60;;;;;;;;;;4904676;29;20032;-95
2023/04/01 15:40:12;;;;;;;5.82;2.80;;;;;;;;;;4899143;29;20039;-94
2023/04/01 15:42:54;;;;;;;6.03;2.85;;;;;;;;;;4901171;29;20048;-94
2023/04/01 15:45:27;;;;;;;7.45;2.85;;;;;;;;;;4891213;29;20102;-95
2023/04/01 15:48:15;;;;;;;5.40;2.90;;;;;;;;;;4895733;29;20024;-93
2023/04/01 15:50:47;;;;;;;13.40;4.30;;;;;;;;;;4909348;29;20457;-93
2023/04/01 15:53:16;;;;;;;17.70;6.25;;;;;;;;;;4904073;29;20128;-94
2023/04/01 15:56:03;;;;;;;19.77;6.07;;;;;;;;;;4903324;29;20037;-94
2023/04/01 21:23:23;;;;;;;8.70;3.75;;;;;;;;;;945962;23;20333;-94
2023/04/01 21:26:12;;;;;;;7.07;3.63;;;;;;;;;;4900060;29;20036;-93
2023/04/01 21:28:58;;;;;;;10.57;3.78;;;;;;;;;;4902685;29;20696;-94
2023/04/01 21:31:36;;;;;;;11.60;3.55;;;;;;;;;;4891426;29;20116;-94
2023/04/01 21:34:05;;;;;;;16.98;3.92;;;;;;;;;;4882914;29;20036;-93
2023/04/01 21:36:34;;;;;;;11.70;3.70;;;;;;;;;;4892628;29;20072;-94
2023/04/01 21:39:04;;;;;;;7.28;3.45;;;;;;;;;;4878249;29;20040;-94
2023/04/01 21:41:49;;;;;;;12.00;3.60;;;;;;;;;;4881740;29;20041;-94
2023/04/01 21:44:35;;;;;;;7.70;3.53;;;;;;;;;;4892133;29;20762;-94
2023/04/01 21:47:20;;;;;;;10.23;3.70;;;;;;;;;;4883190;29;20504;-94
2023/04/01 21:49:49;;;;;;;8.13;3.35;;;;;;;;;;4875765;29;20032;-95
2023/04/01 21:52:34;;;;;;;10.88;4.03;;;;;;;;;;4879537;29;20028;-94
2023/04/01 21:55:16;;;;;;;13.75;4.10;;;;;;;;;;4894392;29;20040;-94
2023/04/01 21:58:01;;;;;;;21.45;4.18;;;;;;;;;;4883166;29;20123;-95
2023/04/01 22:00:33;;;;;;;17.60;4.05;;;;;;;;;;4876246;29;20115;-94
2023/04/01 22:03:18;;;;;;;7.50;3.92;;;;;;;;;;4876218;29;20076;-93
2023/04/01 22:06:03;;;;;;;6.15;3.33;;;;;;;;;;4883424;29;20065;-95
2023/04/01 22:08:35;;;;;;;7.85;3.22;;;;;;;;;;4880903;29;20418;-95
2023/04/01 22:11:06;;;;;;;9.07;3.78;;;;;;;;;;4880061;29;20429;-95
2023/04/01 22:13:42;;;;;;;4.70;2.55;;;;;;;;;;4881871;29;20040;-95
2023/04/01 22:16:21;;;;;;;6.50;3.45;;;;;;;;;;4875931;29;20045;-94
2023/04/01 22:19:12;;;;;;;8.77;3.22;;;;;;;;;;4894188;29;20369;-95
2023/04/01 22:21:44;;;;;;;17.75;3.88;;;;;;;;;;4882554;29;20037;-94
2023/04/01 22:24:34;;;;;;;7.50;3.92;;;;;;;;;;4888319;29;20044;-95
2023/04/01 22:27:16;;;;;;;9.30;3.85;;;;;;;;;;4875294;29;20049;-94
2023/04/01 22:29:44;;;;;;;15.73;3.75;;;;;;;;;;4873861;29;20029;-95
2023/04/01 22:32:16;;;;;;;11.82;3.10;;;;;;;;;;4858035;29;20506;-95
2023/04/01 22:35:15;;;;;;;14.60;3.72;;;;;;;;;;4874518;29;20513;-94
2023/04/01 22:38:02;;;;;;;5.82;2.83;;;;;;;;;;4864249;29;20033;-92
2023/04/01 22:40:35;;;;;;;10.82;3.35;;;;;;;;;;4880009;29;20087;-94
2023/04/01 22:43:06;;;;;;;9.82;2.95;;;;;;;;;;4867821;29;20394;-94
2023/04/01 22:45:48;;;;;;;4.20;2.25;;;;;;;;;;4876198;29;20076;-95
2023/04/01 22:48:38;;;;;;;5.75;2.72;;;;;;;;;;4887737;29;20502;-95
2023/04/01 22:51:07;;;;;;;16.40;2.70;;;;;;;;;;4885550;29;20039;-96
2023/04/01 22:53:37;;;;;;;9.40;3.22;;;;;;;;;;4878586;29;20063;-95
2023/04/01 22:56:06;;;;;;;17.20;3.00;;;;;;;;;;4877793;29;20052;-95
2023/04/01 22:58:39;;;;;;;11.18;3.10;;;;;;;;;;4864982;29;20518;-96
2023/04/01 23:01:07;;;;;;;9.52;3.25;;;;;;;;;;4863771;29;20584;-96
2023/04/01 23:03:36;;;;;;;10.00;3.03;;;;;;;;;;4864253;29;20037;-95
2023/04/01 23:06:06;;;;;;;8.68;2.53;;;;;;;;;;4862922;29;20036;-95
2023/04/01 23:08:48;;;;;;;8.18;3.03;;;;;;;;;;4878085;29;20046;-94
2023/04/01 23:11:26;;;;;;;6.20;2.38;;;;;;;;;;4865125;29;20037;-96
2023/04/01 23:14:18;;;;;;;8.45;3.58;;;;;;;;;;4875981;29;20045;-95
2023/04/01 23:16:53;;;;;;;10.93;2.92;;;;;;;;;;4859772;29;20089;-96
2023/04/01 23:19:26;;;;;;;8.13;3.58;;;;;;;;;;4858552;29;20021;-96
2023/04/01 23:21:54;;;;;;;10.07;3.35;;;;;;;;;;4861926;29;20041;-94
2023/04/01 23:24:43;;;;;;;10.25;3.03;;;;;;;;;;4860104;29;20036;-96
2023/04/01 23:27:34;;;;;;;9.95;2.78;;;;;;;;;;4874848;29;20037;-93
2023/04/01 23:30:01;;;;;;;9.93;3.28;;;;;;;;;;4861951;29;20513;-94
2023/04/01 23:32:31;;;;;;;7.60;2.92;;;;;;;;;;4851652;29;20034;-95
2023/04/01 23:34:59;;;;;;;12.00;3.13;;;;;;;;;;4850489;29;20032;-94
2023/04/01 23:37:26;;;;;;;11.27;2.85;;;;;;;;;;4849627;29;20569;-93
2023/04/01 23:39:53;;;;;;;8.65;2.92;;;;;;;;;;4849343;29;20136;-94
2023/04/01 23:42:25;;;;;;;10.95;2.95;;;;;;;;;;4853100;29;20033;-94
2023/04/01 23:45:02;;;;;;;14.13;2.83;;;;;;;;;;4867529;29;20044;-93
2023/04/01 23:47:28;;;;;;;10.20;2.70;;;;;;;;;;4862206;29;20090;-94
2023/04/01 23:49:59;;;;;;;12.60;3.58;;;;;;;;;;4866579;29;20102;-94
2023/04/01 23:52:36;;;;;;;11.55;2.65;;;;;;;;;;4877811;29;20037;-94
2023/04/01 23:55:11;;;;;;;8.98;2.60;;;;;;;;;;4867094;29;20033;-94
2023/04/01 23:57:39;;;;;;;12.43;2.78;;;;;;;;;;4883531;29;20033;-94
